Terminal Aerodrome Forecast
Issued by NWS Los Angeles, CA

Home | Current Version | Previous Version | Text Only | Print | Product List | Glossary On
Versions: 1 2 3 4 5 6 7 8 9 10 11 12 13 14 15 16 17 18 19 20 21 22 23 24 25 26 27 28
343
FTUS46 KLOX 220110 AAA
TAFSMX
TAF AMD
KSMX 220110Z 2201/2224 16005KT P6SM SCT025 OVC150
     FM220530 15010KT P6SM -SHRA BKN025 OVC050
     FM221000 15022G35KT 5SM -RA BR BKN012 OVC025
     FM221600 17017G27KT 1SM +RA BR BKN007 OVC012
     FM222000 18015G25KT 4SM -RA BKN012 OVC025
     FM222200 22012G20KT 6SM -SHRA BR BKN025 OVC050=

USA.gov is the U.S. government's official web portal to all federal, state and local government web resources and services.